sensor_id;sensor_type;location;lat;lon;timestamp;temperature;humidity
7530;DHT22;3806;52.270;10.544;2023-11-21T00:02:15;10.40;99.90
7530;DHT22;3806;52.270;10.544;2023-11-21T00:04:40;10.40;99.90
7530;DHT22;3806;52.270;10.544;2023-11-21T00:07:06;10.40;99.90
7530;DHT22;3806;52.270;10.544;2023-11-21T00:09:32;10.40;99.90
7530;DHT22;3806;52.270;10.544;2023-11-21T00:11:57;10.40;99.90
7530;DHT22;3806;52.270;10.544;2023-11-21T00:14:24;10.40;99.90
7530;DHT22;3806;52.270;10.544;2023-11-21T00:16:50;10.30;99.90
7530;DHT22;3806;52.270;10.544;2023-11-21T00:19:15;10.30;99.90
7530;DHT22;3806;52.270;10.544;2023-11-21T00:21:42;10.30;99.90
7530;DHT22;3806;52.270;10.544;2023-11-21T00:24:09;10.30;99.90
7530;DHT22;3806;52.270;10.544;2023-11-21T00:26:35;10.30;99.90
7530;DHT22;3806;52.270;10.544;2023-11-21T00:29:03;10.30;99.90
7530;DHT22;3806;52.270;10.544;2023-11-21T00:31:28;10.30;99.90
7530;DHT22;3806;52.270;10.544;2023-11-21T00:33:56;10.30;99.90
7530;DHT22;3806;52.270;10.544;2023-11-21T00:36:21;10.30;99.90
7530;DHT22;3806;52.270;10.544;2023-11-21T00:38:47;10.30;99.90
7530;DHT22;3806;52.270;10.544;2023-11-21T00:41:13;10.30;99.90
7530;DHT22;3806;52.270;10.544;2023-11-21T00:43:39;10.30;99.90
7530;DHT22;3806;52.270;10.544;2023-11-21T00:46:05;10.30;99.90
7530;DHT22;3806;52.270;10.544;2023-11-21T00:48:33;10.20;99.90
7530;DHT22;3806;52.270;10.544;2023-11-21T00:50:58;10.20;99.90
7530;DHT22;3806;52.270;10.544;2023-11-21T00:53:24;10.20;99.90
7530;DHT22;3806;52.270;10.544;2023-11-21T00:55:49;10.30;99.90
7530;DHT22;3806;52.270;10.544;2023-11-21T00:58:15;10.20;99.90
7530;DHT22;3806;52.270;10.544;2023-11-21T01:00:40;10.20;99.90
7530;DHT22;3806;52.270;10.544;2023-11-21T01:03:06;10.20;99.90
7530;DHT22;3806;52.270;10.544;2023-11-21T01:05:33;10.20;99.90
7530;DHT22;3806;52.270;10.544;2023-11-21T01:07:59;10.20;99.90
7530;DHT22;3806;52.270;10.544;2023-11-21T01:10:25;10.20;99.90
7530;DHT22;3806;52.270;10.544;2023-11-21T01:12:50;10.20;99.90
7530;DHT22;3806;52.270;10.544;2023-11-21T01:15:16;10.20;99.90
7530;DHT22;3806;52.270;10.544;2023-11-21T01:17:42;10.20;99.90
7530;DHT22;3806;52.270;10.544;2023-11-21T01:20:08;10.20;99.90
7530;DHT22;3806;52.270;10.544;2023-11-21T01:22:38;10.20;99.90
7530;DHT22;3806;52.270;10.544;2023-11-21T01:25:04;10.20;99.90
7530;DHT22;3806;52.270;10.544;2023-11-21T01:27:31;10.20;99.90
7530;DHT22;3806;52.270;10.544;2023-11-21T01:29:57;10.20;99.90
7530;DHT22;3806;52.270;10.544;2023-11-21T01:32:22;10.20;99.90
7530;DHT22;3806;52.270;10.544;2023-11-21T01:34:50;10.20;99.90
7530;DHT22;3806;52.270;10.544;2023-11-21T01:37:15;10.20;99.90
7530;DHT22;3806;52.270;10.544;2023-11-21T01:39:43;10.20;99.90
7530;DHT22;3806;52.270;10.544;2023-11-21T01:42:10;10.20;99.90
7530;DHT22;3806;52.270;10.544;2023-11-21T01:44:36;10.20;99.90
7530;DHT22;3806;52.270;10.544;2023-11-21T01:47:02;10.20;99.90
7530;DHT22;3806;52.270;10.544;2023-11-21T01:49:33;10.20;99.90
7530;DHT22;3806;52.270;10.544;2023-11-21T01:51:59;10.20;99.90
7530;DHT22;3806;52.270;10.544;2023-11-21T01:54:25;10.20;99.90
7530;DHT22;3806;52.270;10.544;2023-11-21T01:56:51;10.10;99.90
7530;DHT22;3806;52.270;10.544;2023-11-21T01:59:20;10.20;99.90
7530;DHT22;3806;52.270;10.544;2023-11-21T02:01:47;10.20;99.90
7530;DHT22;3806;52.270;10.544;2023-11-21T02:04:13;10.10;99.90
7530;DHT22;3806;52.270;10.544;2023-11-21T02:06:39;10.10;99.90
7530;DHT22;3806;52.270;10.544;2023-11-21T02:09:04;10.10;99.90
7530;DHT22;3806;52.270;10.544;2023-11-21T02:11:30;10.10;99.90
7530;DHT22;3806;52.270;10.544;2023-11-21T02:13:59;10.10;99.90
7530;DHT22;3806;52.270;10.544;2023-11-21T02:16:24;10.10;99.90
7530;DHT22;3806;52.270;10.544;2023-11-21T02:18:51;10.10;99.90
7530;DHT22;3806;52.270;10.544;2023-11-21T02:21:17;10.10;99.90
7530;DHT22;3806;52.270;10.544;2023-11-21T02:23:44;10.10;99.90
7530;DHT22;3806;52.270;10.544;2023-11-21T02:26:12;10.10;99.90
7530;DHT22;3806;52.270;10.544;2023-11-21T02:28:38;10.20;99.90
7530;DHT22;3806;52.270;10.544;2023-11-21T02:31:04;10.20;99.90
7530;DHT22;3806;52.270;10.544;2023-11-21T02:33:30;10.20;99.90
7530;DHT22;3806;52.270;10.544;2023-11-21T02:36:02;10.10;99.90
7530;DHT22;3806;52.270;10.544;2023-11-21T02:38:28;10.20;99.90
7530;DHT22;3806;52.270;10.544;2023-11-21T02:40:53;10.10;99.90
7530;DHT22;3806;52.270;10.544;2023-11-21T02:43:19;10.10;99.90
7530;DHT22;3806;52.270;10.544;2023-11-21T02:45:44;10.10;99.90
7530;DHT22;3806;52.270;10.544;2023-11-21T02:48:10;10.10;99.90
7530;DHT22;3806;52.270;10.544;2023-11-21T02:50:35;10.10;99.90
7530;DHT22;3806;52.270;10.544;2023-11-21T02:53:01;10.20;99.90
7530;DHT22;3806;52.270;10.544;2023-11-21T02:55:27;10.20;99.90
7530;DHT22;3806;52.270;10.544;2023-11-21T02:57:53;10.20;99.90
7530;DHT22;3806;52.270;10.544;2023-11-21T03:00:21;10.20;99.90
7530;DHT22;3806;52.270;10.544;2023-11-21T03:02:49;10.20;99.90
7530;DHT22;3806;52.270;10.544;2023-11-21T03:05:15;10.20;99.90
7530;DHT22;3806;52.270;10.544;2023-11-21T03:07:40;10.20;99.90
7530;DHT22;3806;52.270;10.544;2023-11-21T03:10:07;10.20;99.90
7530;DHT22;3806;52.270;10.544;2023-11-21T03:12:34;10.20;99.90
7530;DHT22;3806;52.270;10.544;2023-11-21T03:15:00;10.20;99.90
7530;DHT22;3806;52.270;10.544;2023-11-21T03:17:27;10.20;99.90
7530;DHT22;3806;52.270;10.544;2023-11-21T03:19:54;10.20;99.90
7530;DHT22;3806;52.270;10.544;2023-11-21T03:22:20;10.20;99.90
7530;DHT22;3806;52.270;10.544;2023-11-21T03:24:45;10.20;99.90
7530;DHT22;3806;52.270;10.544;2023-11-21T03:27:11;10.20;99.90
7530;DHT22;3806;52.270;10.544;2023-11-21T03:29:37;10.20;99.90
7530;DHT22;3806;52.270;10.544;2023-11-21T03:32:03;10.20;99.90
7530;DHT22;3806;52.270;10.544;2023-11-21T03:34:28;10.20;99.90
7530;DHT22;3806;52.270;10.544;2023-11-21T03:36:54;10.20;99.90
7530;DHT22;3806;52.270;10.544;2023-11-21T03:39:20;10.30;99.90
7530;DHT22;3806;52.270;10.544;2023-11-21T03:41:46;10.30;99.90
7530;DHT22;3806;52.270;10.544;2023-11-21T03:44:12;10.30;99.90
7530;DHT22;3806;52.270;10.544;2023-11-21T03:46:38;10.30;99.90
7530;DHT22;3806;52.270;10.544;2023-11-21T03:49:03;10.30;99.90
7530;DHT22;3806;52.270;10.544;2023-11-21T03:51:29;10.30;99.90
7530;DHT22;3806;52.270;10.544;2023-11-21T03:53:55;10.30;99.90
7530;DHT22;3806;52.270;10.544;2023-11-21T03:56:20;10.20;99.90
7530;DHT22;3806;52.270;10.544;2023-11-21T03:58:47;10.20;99.90
7530;DHT22;3806;52.270;10.544;2023-11-21T04:01:20;10.20;99.90
7530;DHT22;3806;52.270;10.544;2023-11-21T04:03:47;10.20;99.90
7530;DHT22;3806;52.270;10.544;2023-11-21T04:06:12;10.20;99.90
7530;DHT22;3806;52.270;10.544;2023-11-21T04:08:38;10.20;99.90
7530;DHT22;3806;52.270;10.544;2023-11-21T04:11:03;10.20;99.90
7530;DHT22;3806;52.270;10.544;2023-11-21T04:13:29;10.20;99.90
7530;DHT22;3806;52.270;10.544;2023-11-21T04:15:56;10.20;99.90
7530;DHT22;3806;52.270;10.544;2023-11-21T04:18:21;10.20;99.90
7530;DHT22;3806;52.270;10.544;2023-11-21T04:20:48;10.20;99.90
7530;DHT22;3806;52.270;10.544;2023-11-21T04:23:14;10.20;99.90
7530;DHT22;3806;52.270;10.544;2023-11-21T04:25:40;10.20;99.90
7530;DHT22;3806;52.270;10.544;2023-11-21T04:28:06;10.20;99.90
7530;DHT22;3806;52.270;10.544;2023-11-21T04:30:31;10.20;99.90
7530;DHT22;3806;52.270;10.544;2023-11-21T04:32:58;10.20;99.90
7530;DHT22;3806;52.270;10.544;2023-11-21T04:35:23;10.20;99.90
7530;DHT22;3806;52.270;10.544;2023-11-21T04:37:49;10.20;99.90
7530;DHT22;3806;52.270;10.544;2023-11-21T04:40:16;10.30;99.90
7530;DHT22;3806;52.270;10.544;2023-11-21T04:42:42;10.20;99.90
7530;DHT22;3806;52.270;10.544;2023-11-21T04:45:08;10.20;99.90
7530;DHT22;3806;52.270;10.544;2023-11-21T04:47:37;10.20;99.90
7530;DHT22;3806;52.270;10.544;2023-11-21T04:50:03;10.20;99.90
7530;DHT22;3806;52.270;10.544;2023-11-21T04:52:29;10.30;99.90
7530;DHT22;3806;52.270;10.544;2023-11-21T04:54:55;10.20;99.90
7530;DHT22;3806;52.270;10.544;2023-11-21T04:57:22;10.20;99.90
7530;DHT22;3806;52.270;10.544;2023-11-21T04:59:51;10.20;99.90
7530;DHT22;3806;52.270;10.544;2023-11-21T05:02:16;10.30;99.90
7530;DHT22;3806;52.270;10.544;2023-11-21T05:04:43;10.30;99.90
7530;DHT22;3806;52.270;10.544;2023-11-21T05:07:09;10.20;99.90
7530;DHT22;3806;52.270;10.544;2023-11-21T05:09:34;10.30;99.90
7530;DHT22;3806;52.270;10.544;2023-11-21T05:12:01;10.20;99.90
7530;DHT22;3806;52.270;10.544;2023-11-21T05:14:26;10.20;99.90
7530;DHT22;3806;52.270;10.544;2023-11-21T05:16:52;10.30;99.90
7530;DHT22;3806;52.270;10.544;2023-11-21T05:19:17;10.20;99.90
7530;DHT22;3806;52.270;10.544;2023-11-21T05:21:43;10.20;99.90
7530;DHT22;3806;52.270;10.544;2023-11-21T05:24:08;10.20;99.90
7530;DHT22;3806;52.270;10.544;2023-11-21T05:26:35;10.20;99.90
7530;DHT22;3806;52.270;10.544;2023-11-21T05:29:00;10.30;99.90
7530;DHT22;3806;52.270;10.544;2023-11-21T05:31:26;10.30;99.90
7530;DHT22;3806;52.270;10.544;2023-11-21T05:33:52;10.20;99.90
7530;DHT22;3806;52.270;10.544;2023-11-21T05:36:18;10.20;99.90
7530;DHT22;3806;52.270;10.544;2023-11-21T05:38:43;10.20;99.90
7530;DHT22;3806;52.270;10.544;2023-11-21T05:41:09;10.30;99.90
7530;DHT22;3806;52.270;10.544;2023-11-21T05:43:38;10.20;99.90
7530;DHT22;3806;52.270;10.544;2023-11-21T05:46:04;10.20;99.90
7530;DHT22;3806;52.270;10.544;2023-11-21T05:48:30;10.20;99.90
7530;DHT22;3806;52.270;10.544;2023-11-21T05:50:56;10.30;99.90
7530;DHT22;3806;52.270;10.544;2023-11-21T05:53:22;10.30;99.90
7530;DHT22;3806;52.270;10.544;2023-11-21T05:55:47;10.30;99.90
7530;DHT22;3806;52.270;10.544;2023-11-21T05:58:13;10.30;99.90
7530;DHT22;3806;52.270;10.544;2023-11-21T06:00:39;10.40;99.90
7530;DHT22;3806;52.270;10.544;2023-11-21T06:03:04;10.40;99.90
7530;DHT22;3806;52.270;10.544;2023-11-21T06:05:32;10.30;99.90
7530;DHT22;3806;52.270;10.544;2023-11-21T06:07:59;10.30;99.90
7530;DHT22;3806;52.270;10.544;2023-11-21T06:10:26;10.20;99.90
7530;DHT22;3806;52.270;10.544;2023-11-21T06:12:52;10.30;99.90
7530;DHT22;3806;52.270;10.544;2023-11-21T06:15:18;10.20;99.90
7530;DHT22;3806;52.270;10.544;2023-11-21T06:17:48;10.20;99.90
7530;DHT22;3806;52.270;10.544;2023-11-21T06:20:20;10.10;99.90
7530;DHT22;3806;52.270;10.544;2023-11-21T06:22:47;10.10;99.90
7530;DHT22;3806;52.270;10.544;2023-11-21T06:25:13;10.10;99.90
7530;DHT22;3806;52.270;10.544;2023-11-21T06:27:41;10.00;99.90
7530;DHT22;3806;52.270;10.544;2023-11-21T06:30:07;9.90;99.90
7530;DHT22;3806;52.270;10.544;2023-11-21T06:32:35;9.80;99.90
7530;DHT22;3806;52.270;10.544;2023-11-21T06:35:04;9.80;99.90
7530;DHT22;3806;52.270;10.544;2023-11-21T06:37:31;9.80;99.90
7530;DHT22;3806;52.270;10.544;2023-11-21T06:39:57;9.70;99.90
7530;DHT22;3806;52.270;10.544;2023-11-21T06:42:23;9.60;99.90
7530;DHT22;3806;52.270;10.544;2023-11-21T06:44:49;9.50;99.90
7530;DHT22;3806;52.270;10.544;2023-11-21T06:47:17;9.50;99.90
7530;DHT22;3806;52.270;10.544;2023-11-21T06:49:43;9.40;99.90
7530;DHT22;3806;52.270;10.544;2023-11-21T06:52:08;9.30;99.90
7530;DHT22;3806;52.270;10.544;2023-11-21T06:54:34;9.30;99.90
7530;DHT22;3806;52.270;10.544;2023-11-21T06:57:00;9.20;99.90
7530;DHT22;3806;52.270;10.544;2023-11-21T06:59:25;9.20;99.90
7530;DHT22;3806;52.270;10.544;2023-11-21T07:01:51;9.20;99.90
7530;DHT22;3806;52.270;10.544;2023-11-21T07:04:16;9.10;99.90
7530;DHT22;3806;52.270;10.544;2023-11-21T07:06:43;9.00;99.90
7530;DHT22;3806;52.270;10.544;2023-11-21T07:09:09;9.00;99.90
7530;DHT22;3806;52.270;10.544;2023-11-21T07:11:37;8.90;99.90
7530;DHT22;3806;52.270;10.544;2023-11-21T07:14:03;8.90;99.90
7530;DHT22;3806;52.270;10.544;2023-11-21T07:16:36;8.80;99.90
7530;DHT22;3806;52.270;10.544;2023-11-21T07:19:03;8.80;99.90
7530;DHT22;3806;52.270;10.544;2023-11-21T07:21:32;8.80;99.90
7530;DHT22;3806;52.270;10.544;2023-11-21T07:23:58;8.80;99.90
7530;DHT22;3806;52.270;10.544;2023-11-21T07:26:23;8.70;99.90
7530;DHT22;3806;52.270;10.544;2023-11-21T07:28:50;8.70;99.90
7530;DHT22;3806;52.270;10.544;2023-11-21T07:31:16;8.70;99.90
7530;DHT22;3806;52.270;10.544;2023-11-21T07:33:41;8.80;99.90
7530;DHT22;3806;52.270;10.544;2023-11-21T07:36:07;8.60;99.90
7530;DHT22;3806;52.270;10.544;2023-11-21T07:38:33;8.70;99.90
7530;DHT22;3806;52.270;10.544;2023-11-21T07:40:59;8.70;99.90
7530;DHT22;3806;52.270;10.544;2023-11-21T07:43:26;8.70;99.90
7530;DHT22;3806;52.270;10.544;2023-11-21T07:45:52;8.70;99.90
7530;DHT22;3806;52.270;10.544;2023-11-21T07:48:17;8.70;99.90
7530;DHT22;3806;52.270;10.544;2023-11-21T07:50:43;8.80;99.90
7530;DHT22;3806;52.270;10.544;2023-11-21T07:53:08;8.80;99.90
7530;DHT22;3806;52.270;10.544;2023-11-21T07:55:34;8.70;99.90
7530;DHT22;3806;52.270;10.544;2023-11-21T07:58:01;8.80;99.90
7530;DHT22;3806;52.270;10.544;2023-11-21T08:00:27;8.70;99.90
7530;DHT22;3806;52.270;10.544;2023-11-21T08:02:55;8.70;99.90
7530;DHT22;3806;52.270;10.544;2023-11-21T08:05:21;8.70;99.90
7530;DHT22;3806;52.270;10.544;2023-11-21T08:07:46;8.60;99.90
7530;DHT22;3806;52.270;10.544;2023-11-21T08:10:12;8.60;99.90
7530;DHT22;3806;52.270;10.544;2023-11-21T08:12:38;8.60;99.90
7530;DHT22;3806;52.270;10.544;2023-11-21T08:15:04;8.50;99.90
7530;DHT22;3806;52.270;10.544;2023-11-21T08:17:30;8.50;99.90
7530;DHT22;3806;52.270;10.544;2023-11-21T08:19:58;8.50;99.90
7530;DHT22;3806;52.270;10.544;2023-11-21T08:22:23;8.50;99.90
7530;DHT22;3806;52.270;10.544;2023-11-21T08:24:50;8.60;99.90
7530;DHT22;3806;52.270;10.544;2023-11-21T08:27:15;8.60;99.90
7530;DHT22;3806;52.270;10.544;2023-11-21T08:29:43;8.60;99.90
7530;DHT22;3806;52.270;10.544;2023-11-21T08:32:08;8.70;99.90
7530;DHT22;3806;52.270;10.544;2023-11-21T08:34:34;8.70;99.90
7530;DHT22;3806;52.270;10.544;2023-11-21T08:37:00;8.70;99.90
7530;DHT22;3806;52.270;10.544;2023-11-21T08:39:25;8.80;99.90
7530;DHT22;3806;52.270;10.544;2023-11-21T08:41:52;8.80;99.90
7530;DHT22;3806;52.270;10.544;2023-11-21T08:44:17;8.90;99.90
7530;DHT22;3806;52.270;10.544;2023-11-21T08:46:46;8.90;99.90
7530;DHT22;3806;52.270;10.544;2023-11-21T08:49:12;9.00;99.90
7530;DHT22;3806;52.270;10.544;2023-11-21T08:51:38;9.00;99.90
7530;DHT22;3806;52.270;10.544;2023-11-21T08:54:04;9.10;99.90
7530;DHT22;3806;52.270;10.544;2023-11-21T08:56:33;9.10;99.90
7530;DHT22;3806;52.270;10.544;2023-11-21T08:58:59;9.00;99.90
7530;DHT22;3806;52.270;10.544;2023-11-21T09:01:27;9.00;99.90
7530;DHT22;3806;52.270;10.544;2023-11-21T09:03:53;9.10;99.90
7530;DHT22;3806;52.270;10.544;2023-11-21T09:06:18;9.10;99.90
7530;DHT22;3806;52.270;10.544;2023-11-21T09:08:44;9.30;99.90
7530;DHT22;3806;52.270;10.544;2023-11-21T09:11:10;9.30;99.90
7530;DHT22;3806;52.270;10.544;2023-11-21T09:13:35;9.30;99.90
7530;DHT22;3806;52.270;10.544;2023-11-21T09:16:02;9.30;99.90
7530;DHT22;3806;52.270;10.544;2023-11-21T09:18:27;9.30;99.90
7530;DHT22;3806;52.270;10.544;2023-11-21T09:20:53;9.20;99.90
7530;DHT22;3806;52.270;10.544;2023-11-21T09:23:18;9.20;99.90
7530;DHT22;3806;52.270;10.544;2023-11-21T09:25:44;9.20;99.90
7530;DHT22;3806;52.270;10.544;2023-11-21T09:28:11;9.20;99.90
7530;DHT22;3806;52.270;10.544;2023-11-21T09:30:37;9.20;99.90
7530;DHT22;3806;52.270;10.544;2023-11-21T09:33:03;9.20;99.90
7530;DHT22;3806;52.270;10.544;2023-11-21T09:35:33;9.20;99.90
7530;DHT22;3806;52.270;10.544;2023-11-21T09:37:59;9.30;99.90
7530;DHT22;3806;52.270;10.544;2023-11-21T09:40:26;9.30;99.90
7530;DHT22;3806;52.270;10.544;2023-11-21T09:42:56;9.40;99.90
7530;DHT22;3806;52.270;10.544;2023-11-21T09:45:29;9.50;99.90
7530;DHT22;3806;52.270;10.544;2023-11-21T09:47:57;9.60;99.90
7530;DHT22;3806;52.270;10.544;2023-11-21T09:50:23;9.70;99.90
7530;DHT22;3806;52.270;10.544;2023-11-21T09:55:22;9.90;99.90
7530;DHT22;3806;52.270;10.544;2023-11-21T09:57:52;10.10;99.90
7530;DHT22;3806;52.270;10.544;2023-11-21T10:00:19;10.30;99.90
7530;DHT22;3806;52.270;10.544;2023-11-21T10:02:46;10.40;99.90
7530;DHT22;3806;52.270;10.544;2023-11-21T10:05:15;10.60;99.90
7530;DHT22;3806;52.270;10.544;2023-11-21T10:07:43;10.80;99.90
7530;DHT22;3806;52.270;10.544;2023-11-21T10:10:10;11.00;99.90
7530;DHT22;3806;52.270;10.544;2023-11-21T10:12:36;10.90;99.50
7530;DHT22;3806;52.270;10.544;2023-11-21T10:15:07;10.90;99.50
7530;DHT22;3806;52.270;10.544;2023-11-21T10:17:35;10.80;99.40
7530;DHT22;3806;52.270;10.544;2023-11-21T10:20:09;10.70;99.40
7530;DHT22;3806;52.270;10.544;2023-11-21T10:22:41;10.60;98.80
7530;DHT22;3806;52.270;10.544;2023-11-21T10:25:08;10.40;98.80
7530;DHT22;3806;52.270;10.544;2023-11-21T10:27:38;10.20;99.00
7530;DHT22;3806;52.270;10.544;2023-11-21T10:30:05;10.20;99.40
7530;DHT22;3806;52.270;10.544;2023-11-21T10:32:39;10.10;99.60
7530;DHT22;3806;52.270;10.544;2023-11-21T10:35:06;10.10;99.60
7530;DHT22;3806;52.270;10.544;2023-11-21T10:37:38;10.00;99.80
7530;DHT22;3806;52.270;10.544;2023-11-21T10:40:11;10.00;99.90
7530;DHT22;3806;52.270;10.544;2023-11-21T10:42:38;9.90;99.90
7530;DHT22;3806;52.270;10.544;2023-11-21T10:45:05;9.90;99.90
7530;DHT22;3806;52.270;10.544;2023-11-21T10:47:38;10.00;99.90
7530;DHT22;3806;52.270;10.544;2023-11-21T10:50:05;10.00;99.50
7530;DHT22;3806;52.270;10.544;2023-11-21T10:52:30;10.00;99.20
7530;DHT22;3806;52.270;10.544;2023-11-21T10:54:56;9.90;99.90
7530;DHT22;3806;52.270;10.544;2023-11-21T10:57:25;9.90;99.90
7530;DHT22;3806;52.270;10.544;2023-11-21T10:59:54;9.90;99.90
7530;DHT22;3806;52.270;10.544;2023-11-21T11:02:26;9.90;99.90
7530;DHT22;3806;52.270;10.544;2023-11-21T11:04:54;9.90;99.90
7530;DHT22;3806;52.270;10.544;2023-11-21T11:07:24;9.90;99.90
7530;DHT22;3806;52.270;10.544;2023-11-21T11:09:55;10.00;99.40
7530;DHT22;3806;52.270;10.544;2023-11-21T11:12:21;9.90;99.90
7530;DHT22;3806;52.270;10.544;2023-11-21T11:14:48;9.90;99.90
7530;DHT22;3806;52.270;10.544;2023-11-21T11:17:14;10.00;99.60
7530;DHT22;3806;52.270;10.544;2023-11-21T11:19:40;10.00;99.70
7530;DHT22;3806;52.270;10.544;2023-11-21T11:22:18;10.00;99.70
7530;DHT22;3806;52.270;10.544;2023-11-21T11:28:07;9.90;99.90
7530;DHT22;3806;52.270;10.544;2023-11-21T11:33:41;9.80;99.90
7530;DHT22;3806;52.270;10.544;2023-11-21T11:38:51;9.90;99.90
7530;DHT22;3806;52.270;10.544;2023-11-21T11:41:29;9.90;99.90
7530;DHT22;3806;52.270;10.544;2023-11-21T11:43:57;9.90;99.90
7530;DHT22;3806;52.270;10.544;2023-11-21T11:46:43;9.90;99.90
7530;DHT22;3806;52.270;10.544;2023-11-21T11:49:23;9.90;99.90
7530;DHT22;3806;52.270;10.544;2023-11-21T11:54:55;9.90;99.90
7530;DHT22;3806;52.270;10.544;2023-11-21T11:57:24;9.90;99.90
7530;DHT22;3806;52.270;10.544;2023-11-21T12:00:12;9.90;99.90
7530;DHT22;3806;52.270;10.544;2023-11-21T12:02:42;9.90;99.90
7530;DHT22;3806;52.270;10.544;2023-11-21T12:05:10;9.90;99.90
7530;DHT22;3806;52.270;10.544;2023-11-21T12:10:27;9.90;99.90
7530;DHT22;3806;52.270;10.544;2023-11-21T12:12:55;9.90;99.90
7530;DHT22;3806;52.270;10.544;2023-11-21T12:15:22;10.00;99.90
7530;DHT22;3806;52.270;10.544;2023-11-21T12:17:49;10.00;99.70
7530;DHT22;3806;52.270;10.544;2023-11-21T12:20:18;10.00;99.30
7530;DHT22;3806;52.270;10.544;2023-11-21T12:22:47;9.90;99.70
7530;DHT22;3806;52.270;10.544;2023-11-21T12:25:23;9.90;99.40
7530;DHT22;3806;52.270;10.544;2023-11-21T12:27:52;9.90;99.20
7530;DHT22;3806;52.270;10.544;2023-11-21T12:30:20;9.80;99.20
7530;DHT22;3806;52.270;10.544;2023-11-21T12:32:51;9.80;99.40
7530;DHT22;3806;52.270;10.544;2023-11-21T12:35:18;9.80;99.10
7530;DHT22;3806;52.270;10.544;2023-11-21T12:37:48;9.80;99.20
7530;DHT22;3806;52.270;10.544;2023-11-21T12:40:14;9.80;99.40
7530;DHT22;3806;52.270;10.544;2023-11-21T12:42:41;9.90;99.50
7530;DHT22;3806;52.270;10.544;2023-11-21T12:47:35;10.00;98.60
7530;DHT22;3806;52.270;10.544;2023-11-21T12:50:02;9.90;99.00
7530;DHT22;3806;52.270;10.544;2023-11-21T12:52:28;9.90;99.10
7530;DHT22;3806;52.270;10.544;2023-11-21T12:54:53;9.80;98.80
7530;DHT22;3806;52.270;10.544;2023-11-21T12:57:25;9.70;99.00
7530;DHT22;3806;52.270;10.544;2023-11-21T12:59:57;9.70;99.30
7530;DHT22;3806;52.270;10.544;2023-11-21T13:02:26;9.60;99.40
7530;DHT22;3806;52.270;10.544;2023-11-21T13:04:52;9.70;99.40
7530;DHT22;3806;52.270;10.544;2023-11-21T13:07:19;9.60;99.00
7530;DHT22;3806;52.270;10.544;2023-11-21T13:09:45;9.60;99.10
7530;DHT22;3806;52.270;10.544;2023-11-21T13:12:11;9.60;99.30
7530;DHT22;3806;52.270;10.544;2023-11-21T13:14:39;9.60;99.10
7530;DHT22;3806;52.270;10.544;2023-11-21T13:17:05;9.50;99.10
7530;DHT22;3806;52.270;10.544;2023-11-21T13:19:31;9.50;99.10
7530;DHT22;3806;52.270;10.544;2023-11-21T13:21:56;9.50;98.90
7530;DHT22;3806;52.270;10.544;2023-11-21T13:24:23;9.50;98.50
7530;DHT22;3806;52.270;10.544;2023-11-21T13:26:51;9.40;98.70
7530;DHT22;3806;52.270;10.544;2023-11-21T13:29:17;9.30;99.00
7530;DHT22;3806;52.270;10.544;2023-11-21T13:31:42;9.30;98.60
7530;DHT22;3806;52.270;10.544;2023-11-21T13:34:08;9.30;98.50
7530;DHT22;3806;52.270;10.544;2023-11-21T13:36:34;9.30;98.90
7530;DHT22;3806;52.270;10.544;2023-11-21T13:39:00;9.30;98.90
7530;DHT22;3806;52.270;10.544;2023-11-21T13:41:33;9.30;98.90
7530;DHT22;3806;52.270;10.544;2023-11-21T13:43:59;9.30;98.90
7530;DHT22;3806;52.270;10.544;2023-11-21T13:46:39;9.30;98.70
7530;DHT22;3806;52.270;10.544;2023-11-21T13:49:05;9.20;98.80
7530;DHT22;3806;52.270;10.544;2023-11-21T13:51:36;9.20;98.90
7530;DHT22;3806;52.270;10.544;2023-11-21T13:54:11;9.20;98.80
7530;DHT22;3806;52.270;10.544;2023-11-21T13:56:36;9.20;98.70
7530;DHT22;3806;52.270;10.544;2023-11-21T13:59:02;9.10;98.80
7530;DHT22;3806;52.270;10.544;2023-11-21T14:02:00;9.10;99.10
7530;DHT22;3806;52.270;10.544;2023-11-21T14:04:38;9.10;99.20
7530;DHT22;3806;52.270;10.544;2023-11-21T14:07:19;9.10;99.40
7530;DHT22;3806;52.270;10.544;2023-11-21T14:09:57;9.10;99.30
7530;DHT22;3806;52.270;10.544;2023-11-21T14:12:24;9.10;99.50
7530;DHT22;3806;52.270;10.544;2023-11-21T14:14:49;9.00;99.70
7530;DHT22;3806;52.270;10.544;2023-11-21T14:17:15;8.90;99.70
7530;DHT22;3806;52.270;10.544;2023-11-21T14:19:40;8.90;99.70
7530;DHT22;3806;52.270;10.544;2023-11-21T14:22:10;8.80;99.80
7530;DHT22;3806;52.270;10.544;2023-11-21T14:24:36;8.70;99.90
7530;DHT22;3806;52.270;10.544;2023-11-21T14:27:02;8.80;99.90
7530;DHT22;3806;52.270;10.544;2023-11-21T14:29:28;8.70;99.90
7530;DHT22;3806;52.270;10.544;2023-11-21T14:31:55;8.60;99.90
7530;DHT22;3806;52.270;10.544;2023-11-21T14:34:23;8.60;99.90
7530;DHT22;3806;52.270;10.544;2023-11-21T14:36:50;8.50;99.90
7530;DHT22;3806;52.270;10.544;2023-11-21T14:39:15;8.50;99.90
7530;DHT22;3806;52.270;10.544;2023-11-21T14:41:54;8.50;99.90
7530;DHT22;3806;52.270;10.544;2023-11-21T14:44:21;8.50;99.90
7530;DHT22;3806;52.270;10.544;2023-11-21T14:46:51;8.50;99.90
7530;DHT22;3806;52.270;10.544;2023-11-21T14:49:18;8.50;99.90
7530;DHT22;3806;52.270;10.544;2023-11-21T14:51:52;8.50;99.90
7530;DHT22;3806;52.270;10.544;2023-11-21T14:54:38;8.40;99.90
7530;DHT22;3806;52.270;10.544;2023-11-21T14:57:14;8.40;99.90
7530;DHT22;3806;52.270;10.544;2023-11-21T14:59:48;8.40;99.90
7530;DHT22;3806;52.270;10.544;2023-11-21T15:02:18;8.30;99.90
7530;DHT22;3806;52.270;10.544;2023-11-21T15:04:48;8.30;99.90
7530;DHT22;3806;52.270;10.544;2023-11-21T15:07:14;8.30;99.90
7530;DHT22;3806;52.270;10.544;2023-11-21T15:09:40;8.20;99.90
7530;DHT22;3806;52.270;10.544;2023-11-21T15:12:10;8.20;99.90
7530;DHT22;3806;52.270;10.544;2023-11-21T15:14:38;8.20;99.90
7530;DHT22;3806;52.270;10.544;2023-11-21T15:17:03;8.20;99.90
7530;DHT22;3806;52.270;10.544;2023-11-21T15:19:29;8.10;99.90
7530;DHT22;3806;52.270;10.544;2023-11-21T15:21:56;8.10;99.50
7530;DHT22;3806;52.270;10.544;2023-11-21T15:24:22;8.10;99.10
7530;DHT22;3806;52.270;10.544;2023-11-21T15:26:47;8.10;99.20
7530;DHT22;3806;52.270;10.544;2023-11-21T15:29:13;8.10;99.30
7530;DHT22;3806;52.270;10.544;2023-11-21T15:31:40;8.00;99.10
7530;DHT22;3806;52.270;10.544;2023-11-21T15:34:11;8.00;98.90
7530;DHT22;3806;52.270;10.544;2023-11-21T15:36:36;8.00;98.90
7530;DHT22;3806;52.270;10.544;2023-11-21T15:39:02;8.00;99.20
7530;DHT22;3806;52.270;10.544;2023-11-21T15:41:28;8.00;99.10
7530;DHT22;3806;52.270;10.544;2023-11-21T15:43:53;8.00;99.10
7530;DHT22;3806;52.270;10.544;2023-11-21T15:46:19;7.90;98.90
7530;DHT22;3806;52.270;10.544;2023-11-21T15:48:44;7.90;98.70
7530;DHT22;3806;52.270;10.544;2023-11-21T15:51:16;7.90;98.70
7530;DHT22;3806;52.270;10.544;2023-11-21T15:53:42;7.80;98.70
7530;DHT22;3806;52.270;10.544;2023-11-21T15:56:08;7.80;98.60
7530;DHT22;3806;52.270;10.544;2023-11-21T15:58:38;7.80;98.30
7530;DHT22;3806;52.270;10.544;2023-11-21T16:01:05;7.80;98.50
7530;DHT22;3806;52.270;10.544;2023-11-21T16:03:33;7.70;98.60
7530;DHT22;3806;52.270;10.544;2023-11-21T16:05:59;7.70;98.60
7530;DHT22;3806;52.270;10.544;2023-11-21T16:08:24;7.70;98.70
7530;DHT22;3806;52.270;10.544;2023-11-21T16:10:51;7.70;98.80
7530;DHT22;3806;52.270;10.544;2023-11-21T16:13:16;7.70;98.80
7530;DHT22;3806;52.270;10.544;2023-11-21T16:15:43;7.70;98.90